createdAt,value
2018-04-26T00:01:50.696Z,100423.18
2018-04-26T00:04:16.548Z,100421.97
2018-04-26T00:06:42.384Z,100420.69
2018-04-26T00:09:08.264Z,100427.72
2018-04-26T00:11:34.109Z,100428.17
2018-04-26T00:13:59.983Z,100427.36
2018-04-26T00:16:25.867Z,100426.15
2018-04-26T00:18:51.718Z,100428.22
2018-04-26T00:21:17.565Z,100420.08
2018-04-26T00:23:43.400Z,100419.16
2018-04-26T00:26:09.241Z,100409.16
2018-04-26T00:28:35.076Z,100412.19
2018-04-26T00:31:00.922Z,100409.66
2018-04-26T00:33:26.779Z,100408.03
2018-04-26T00:35:52.617Z,100407.11
2018-04-26T00:38:18.455Z,100400.20
2018-04-26T00:40:44.302Z,100407.50
2018-04-26T00:43:10.184Z,100408.25
2018-04-26T00:45:36.030Z,100407.23
2018-04-26T00:48:01.969Z,100409.28
2018-04-26T00:50:27.786Z,100411.07
2018-04-26T00:52:53.631Z,100402.58
2018-04-26T00:55:19.503Z,100407.03
2018-04-26T00:57:45.349Z,100399.66
2018-04-26T01:00:11.216Z,100395.27
2018-04-26T01:02:37.046Z,100393.13
2018-04-26T01:05:02.923Z,100389.79
2018-04-26T01:07:28.786Z,100396.59
2018-04-26T01:09:54.636Z,100392.56
2018-04-26T01:12:20.486Z,100391.31
2018-04-26T01:14:46.317Z,100392.23
2018-04-26T01:17:12.170Z,100394.64
2018-04-26T01:19:38.010Z,100391.34
2018-04-26T01:22:03.858Z,100388.17
2018-04-26T01:24:29.722Z,100385.99
2018-04-26T01:26:55.585Z,100384.12
2018-04-26T01:29:21.465Z,100387.92
2018-04-26T01:31:47.311Z,100385.55
2018-04-26T01:34:13.150Z,100381.80
2018-04-26T01:36:51.342Z,100384.17
2018-04-26T01:39:17.198Z,100388.56
2018-04-26T01:41:43.079Z,100389.95
2018-04-26T01:44:08.953Z,100385.55
2018-04-26T01:46:34.803Z,100384.11
2018-04-26T01:49:00.657Z,100386.32
2018-04-26T01:51:26.503Z,100382.97
2018-04-26T01:53:52.380Z,100381.09
2018-04-26T01:56:18.222Z,100382.93
2018-04-26T01:58:44.063Z,100384.71
2018-04-26T02:01:09.931Z,100386.05
2018-04-26T02:03:35.793Z,100377.04
2018-04-26T02:06:01.618Z,100380.66
2018-04-26T02:08:27.480Z,100388.06
2018-04-26T02:10:53.357Z,100387.76
2018-04-26T02:13:19.181Z,100386.26
2018-04-26T02:15:45.062Z,100388.03
2018-04-26T02:18:10.909Z,100381.39
2018-04-26T02:20:36.764Z,100382.77
2018-04-26T02:23:02.640Z,100389.28
2018-04-26T02:25:29.627Z,100390.12
2018-04-26T02:27:55.496Z,100388.41
2018-04-26T02:30:21.379Z,100387.50
2018-04-26T02:32:47.223Z,100385.56
2018-04-26T02:35:13.036Z,100391.43
2018-04-26T02:37:38.878Z,100387.98
2018-04-26T02:40:04.739Z,100386.63
2018-04-26T02:42:30.587Z,100383.75
2018-04-26T02:44:56.447Z,100383.01
2018-04-26T02:47:22.314Z,100383.21
2018-04-26T02:49:48.160Z,100378.98
2018-04-26T02:52:13.993Z,100377.98
2018-04-26T02:54:39.834Z,100379.55
2018-04-26T02:57:05.685Z,100375.93
2018-04-26T02:59:31.626Z,100376.23
2018-04-26T03:01:57.426Z,100380.76
2018-04-26T03:04:23.254Z,100378.52
2018-04-26T03:06:49.080Z,100376.84
2018-04-26T03:09:14.927Z,100378.38
2018-04-26T03:11:40.803Z,100382.09
2018-04-26T03:14:06.670Z,100374.62
2018-04-26T03:16:32.527Z,100369.28
2018-04-26T03:18:58.381Z,100366.14
2018-04-26T03:21:24.229Z,100369.05
2018-04-26T03:23:50.084Z,100364.55
2018-04-26T03:26:15.927Z,100351.20
2018-04-26T03:28:41.792Z,100358.85
2018-04-26T03:31:07.744Z,100361.13
2018-04-26T03:33:33.505Z,100364.52
2018-04-26T03:35:59.358Z,100361.98
2018-04-26T03:38:25.202Z,100363.33
2018-04-26T03:40:51.061Z,100364.05
2018-04-26T03:43:17.719Z,100359.53
2018-04-26T03:45:43.584Z,100359.33
2018-04-26T03:48:09.422Z,100362.08
2018-04-26T03:50:35.280Z,100362.48
2018-04-26T03:53:01.127Z,100366.17
2018-04-26T03:55:26.973Z,100366.70
2018-04-26T03:57:52.798Z,100370.63
2018-04-26T04:00:30.919Z,100368.22
2018-04-26T04:03:09.017Z,100367.45
2018-04-26T04:05:40.902Z,100367.61
2018-04-26T04:08:06.759Z,100371.20
2018-04-26T04:10:32.602Z,100369.05
2018-04-26T04:12:58.460Z,100367.00
2018-04-26T04:15:24.289Z,100369.55
2018-04-26T04:17:50.150Z,100370.61
2018-04-26T04:20:15.977Z,100373.97
2018-04-26T04:22:41.859Z,100370.95
2018-04-26T04:25:07.715Z,100377.96
2018-04-26T04:27:33.577Z,100368.78
2018-04-26T04:30:00.257Z,100370.95
2018-04-26T04:32:26.093Z,100374.22
2018-04-26T04:34:51.926Z,100377.73
2018-04-26T04:37:17.775Z,100377.17
2018-04-26T04:39:43.630Z,100377.36
2018-04-26T04:42:09.509Z,100384.30
2018-04-26T04:44:35.378Z,100383.93
2018-04-26T04:47:01.239Z,100383.53
2018-04-26T04:49:27.074Z,100389.97
2018-04-26T04:51:52.922Z,100394.33
2018-04-26T04:54:18.759Z,100385.42
2018-04-26T04:56:44.619Z,100388.34
2018-04-26T04:59:10.492Z,100388.84
2018-04-26T05:01:36.354Z,100397.03
2018-04-26T05:04:02.205Z,100389.31
2018-04-26T05:06:28.071Z,100394.98
2018-04-26T05:08:53.904Z,100395.84
2018-04-26T05:11:19.776Z,100391.86
2018-04-26T05:13:45.639Z,100398.91
2018-04-26T05:16:11.466Z,100398.33
2018-04-26T05:18:37.335Z,100395.62
2018-04-26T05:21:03.183Z,100402.35
2018-04-26T05:23:29.030Z,100416.27
2018-04-26T05:25:54.872Z,100411.31
2018-04-26T05:28:20.768Z,100428.55
2018-04-26T05:30:46.614Z,100422.25
2018-04-26T05:33:12.498Z,100426.66
2018-04-26T05:35:38.352Z,100437.56
2018-04-26T05:38:04.207Z,100439.48
2018-04-26T05:40:30.159Z,100445.09
2018-04-26T05:42:55.959Z,100455.25
2018-04-26T05:45:21.827Z,100452.44
2018-04-26T05:47:47.677Z,100453.34
2018-04-26T05:50:13.577Z,100454.07
2018-04-26T05:52:39.405Z,100455.38
2018-04-26T05:55:05.260Z,100463.02
2018-04-26T05:57:31.113Z,100454.77
2018-04-26T05:59:56.986Z,100458.22
2018-04-26T06:02:22.833Z,100454.66
2018-04-26T06:04:48.682Z,100462.55
2018-04-26T06:07:14.534Z,100466.06
2018-04-26T06:09:40.388Z,100467.77
2018-04-26T06:12:06.256Z,100476.89
2018-04-26T06:14:32.119Z,100476.89
2018-04-26T06:16:58.030Z,100474.30
2018-04-26T06:19:23.879Z,100484.34
2018-04-26T06:21:49.716Z,100482.03
2018-04-26T06:24:15.574Z,100494.63
2018-04-26T06:26:41.432Z,100504.31
2018-04-26T06:29:07.298Z,100512.13
2018-04-26T06:31:33.134Z,100505.69
2018-04-26T06:33:59.004Z,100503.75
2018-04-26T06:36:24.855Z,100509.84
2018-04-26T06:38:50.717Z,100514.72
2018-04-26T06:41:16.559Z,100506.43
2018-04-26T06:43:42.410Z,100504.38
2018-04-26T06:46:08.264Z,100497.77
2018-04-26T06:48:34.144Z,100496.80
2018-04-26T06:50:59.980Z,100494.61
2018-04-26T06:53:25.886Z,100500.88
2018-04-26T06:55:51.703Z,100493.09
2018-04-26T06:58:17.540Z,100503.49
2018-04-26T07:00:43.404Z,100505.66
2018-04-26T07:03:09.269Z,100507.59
2018-04-26T07:05:36.695Z,100505.74
2018-04-26T07:08:02.542Z,100520.97
2018-04-26T07:10:28.397Z,100522.75
2018-04-26T07:12:54.237Z,100523.64
2018-04-26T07:15:20.096Z,100515.83
2018-04-26T07:17:45.956Z,100526.72
2018-04-26T07:20:11.799Z,100518.98
2018-04-26T07:22:37.669Z,100529.08
2018-04-26T07:25:03.507Z,100526.84
2018-04-26T07:27:29.367Z,100536.14
2018-04-26T07:29:55.252Z,100529.17
2018-04-26T07:32:21.087Z,100532.95
2018-04-26T07:34:46.964Z,100533.37
2018-04-26T07:37:12.799Z,100538.61
2018-04-26T07:39:38.695Z,100532.14
2018-04-26T07:42:04.559Z,100533.34
2018-04-26T07:44:30.411Z,100532.71
2018-04-26T07:46:56.321Z,100541.59
2018-04-26T07:49:22.143Z,100541.48
2018-04-26T07:51:47.992Z,100548.69
2018-04-26T07:54:13.863Z,100546.08
2018-04-26T07:56:39.719Z,100548.20
2018-04-26T07:59:05.559Z,100546.52
2018-04-26T08:01:31.440Z,100554.73
2018-04-26T08:03:57.273Z,100546.81
2018-04-26T08:06:23.121Z,100550.27
2018-04-26T08:08:48.968Z,100559.97
2018-04-26T08:11:14.818Z,100555.67
2018-04-26T08:13:40.730Z,100553.89
2018-04-26T08:16:06.583Z,100559.15
2018-04-26T08:18:32.429Z,100564.22
2018-04-26T08:20:58.356Z,100564.81
2018-04-26T08:23:24.196Z,100563.53
2018-04-26T08:25:50.037Z,100575.69
2018-04-26T08:28:15.882Z,100570.13
2018-04-26T08:30:41.732Z,100589.87
2018-04-26T08:33:08.425Z,100584.98
2018-04-26T08:35:34.283Z,100576.76
2018-04-26T08:38:00.153Z,100576.37
2018-04-26T08:40:26.022Z,100567.75
2018-04-26T08:42:51.878Z,100586.47
2018-04-26T08:45:17.731Z,100581.59
2018-04-26T08:47:43.598Z,100578.35
2018-04-26T08:50:09.441Z,100580.80
2018-04-26T08:52:35.287Z,100582.41
2018-04-26T08:55:01.116Z,100588.05
2018-04-26T08:57:26.960Z,100583.59
2018-04-26T08:59:52.833Z,100581.95
2018-04-26T09:02:18.695Z,100586.55
2018-04-26T09:04:44.570Z,100596.44
2018-04-26T09:07:10.419Z,100586.59
2018-04-26T09:09:36.268Z,100587.05
2018-04-26T09:12:02.113Z,100586.41
2018-04-26T09:14:27.946Z,100595.97
2018-04-26T09:16:53.790Z,100606.28
2018-04-26T09:19:19.643Z,100600.77
2018-04-26T09:21:45.508Z,100603.27
2018-04-26T09:24:11.351Z,100625.45
2018-04-26T09:26:37.194Z,100628.47
2018-04-26T09:29:03.036Z,100631.11
2018-04-26T09:31:28.910Z,100636.61
2018-04-26T09:33:54.734Z,100645.48
2018-04-26T09:36:20.624Z,100638.91
2018-04-26T09:38:46.554Z,100651.09
2018-04-26T09:41:12.367Z,100638.91
2018-04-26T09:43:38.237Z,100648.20
2018-04-26T09:46:04.078Z,100659.37
2018-04-26T09:48:29.930Z,100646.10
2018-04-26T09:50:55.769Z,100644.48
2018-04-26T09:53:21.606Z,100645.26
2018-04-26T09:55:47.449Z,100635.70
2018-04-26T09:58:13.300Z,100628.69
2018-04-26T10:00:42.168Z,100626.73
2018-04-26T10:03:08.877Z,100631.16
2018-04-26T10:05:40.724Z,100619.56
2018-04-26T10:08:06.553Z,100624.25
2018-04-26T10:10:32.411Z,100631.55
2018-04-26T10:12:58.251Z,100630.72
2018-04-26T10:15:24.107Z,100644.27
2018-04-26T10:17:49.943Z,100640.06
2018-04-26T10:20:15.790Z,100663.69
2018-04-26T10:22:41.641Z,100653.03
2018-04-26T10:25:07.514Z,100651.48
2018-04-26T10:27:33.336Z,100653.47
2018-04-26T10:29:59.249Z,100648.16
2018-04-26T10:32:25.076Z,100654.91
2018-04-26T10:34:50.906Z,100650.73
2018-04-26T10:37:16.759Z,100645.17
2018-04-26T10:39:42.603Z,100655.16
2018-04-26T10:42:08.461Z,100644.92
2018-04-26T10:44:34.414Z,100649.80
2018-04-26T10:47:00.360Z,100671.31
2018-04-26T10:49:26.130Z,100685.05
2018-04-26T10:51:52.002Z,100694.56
2018-04-26T10:54:17.842Z,100683.98
2018-04-26T10:56:43.683Z,100699.13
2018-04-26T10:59:09.505Z,100700.00
2018-04-26T11:01:35.367Z,100696.69
2018-04-26T11:04:01.221Z,100688.80
2018-04-26T11:06:27.072Z,100681.55
2018-04-26T11:08:52.949Z,100681.93
2018-04-26T11:11:18.802Z,100690.59
2018-04-26T11:13:44.675Z,100679.37
2018-04-26T11:16:10.538Z,100687.73
2018-04-26T11:18:36.407Z,100694.61
2018-04-26T11:21:02.253Z,100680.45
2018-04-26T11:23:28.114Z,100689.78
2018-04-26T11:25:53.963Z,100673.66
2018-04-26T11:28:19.809Z,100667.13
2018-04-26T11:30:45.661Z,100678.28
2018-04-26T11:33:11.524Z,100664.59
2018-04-26T11:35:37.402Z,100671.87
2018-04-26T11:38:03.809Z,100672.98
2018-04-26T11:40:29.654Z,100661.68
2018-04-26T11:42:55.493Z,100661.94
2018-04-26T11:45:21.352Z,100663.59
2018-04-26T11:47:47.191Z,100654.31
2018-04-26T11:50:13.043Z,100648.50
2018-04-26T11:52:38.883Z,100647.30
2018-04-26T11:55:04.746Z,100647.23
2018-04-26T11:57:30.580Z,100648.39
2018-04-26T11:59:56.415Z,100657.49
2018-04-26T12:02:22.355Z,100648.50
2018-04-26T12:04:48.120Z,100654.70
2018-04-26T12:07:13.977Z,100659.01
2018-04-26T12:09:39.843Z,100653.94
2018-04-26T12:12:05.678Z,100659.81
2018-04-26T12:14:31.526Z,100664.98
2018-04-26T12:16:57.393Z,100668.11
2018-04-26T12:19:23.204Z,100667.72
2018-04-26T12:21:49.108Z,100681.48
2018-04-26T12:24:14.956Z,100678.56
2018-04-26T12:26:40.811Z,100678.02
2018-04-26T12:29:06.671Z,100682.73
2018-04-26T12:31:32.502Z,100678.01
2018-04-26T12:33:58.355Z,100716.84
2018-04-26T12:36:24.236Z,100720.02
2018-04-26T12:38:50.074Z,100723.57
2018-04-26T12:41:15.921Z,100719.70
2018-04-26T12:43:41.779Z,100691.48
2018-04-26T12:46:07.633Z,100700.80
2018-04-26T12:48:33.508Z,100715.08
2018-04-26T12:50:59.372Z,100729.47
2018-04-26T12:53:25.248Z,100757.92
2018-04-26T12:55:51.134Z,100738.81
2018-04-26T12:58:17.112Z,100727.17
2018-04-26T13:00:42.883Z,100724.45
2018-04-26T13:03:08.743Z,100730.09
2018-04-26T13:05:34.580Z,100722.61
2018-04-26T13:08:00.515Z,100717.98
2018-04-26T13:10:26.264Z,100709.15
2018-04-26T13:12:52.645Z,100713.70
2018-04-26T13:15:18.466Z,100715.81
2018-04-26T13:17:44.334Z,100717.05
2018-04-26T13:20:10.188Z,100732.25
2018-04-26T13:22:36.082Z,100735.99
2018-04-26T13:25:01.952Z,100733.05
2018-04-26T13:27:27.824Z,100740.25
2018-04-26T13:29:53.733Z,100733.24
2018-04-26T13:32:19.540Z,100724.05
2018-04-26T13:34:45.397Z,100726.88
2018-04-26T13:37:11.268Z,100724.92
2018-04-26T13:39:37.138Z,100724.85
2018-04-26T13:42:02.988Z,100708.52
2018-04-26T13:44:28.853Z,100715.18
2018-04-26T13:46:54.717Z,100711.39
2018-04-26T13:49:20.597Z,100712.91
2018-04-26T13:51:46.450Z,100704.73
2018-04-26T13:54:12.335Z,100699.68
2018-04-26T13:56:38.182Z,100700.00
2018-04-26T13:59:04.020Z,100703.42
2018-04-26T14:01:29.862Z,100713.30
2018-04-26T14:03:55.728Z,100706.99
2018-04-26T14:06:21.603Z,100698.66
2018-04-26T14:08:47.469Z,100702.98
2018-04-26T14:11:13.363Z,100703.14
2018-04-26T14:13:39.195Z,100703.84
2018-04-26T14:16:05.043Z,100709.30
2018-04-26T14:18:30.887Z,100702.77
2018-04-26T14:20:56.771Z,100707.56
2018-04-26T14:23:22.678Z,100710.77
2018-04-26T14:25:48.513Z,100706.91
2018-04-26T14:28:14.365Z,100713.53
2018-04-26T14:30:40.227Z,100725.51
2018-04-26T14:33:06.101Z,100739.06
2018-04-26T14:35:32.013Z,100769.93
2018-04-26T14:37:57.881Z,100801.74
2018-04-26T14:40:23.744Z,100826.59
2018-04-26T14:42:49.634Z,100807.12
2018-04-26T14:45:15.484Z,100779.01
2018-04-26T14:47:41.326Z,100806.03
2018-04-26T14:50:07.178Z,100788.00
2018-04-26T14:52:33.214Z,100785.31
2018-04-26T14:54:59.103Z,100790.19
2018-04-26T14:57:24.962Z,100795.48
2018-04-26T14:59:51.501Z,100796.05
2018-04-26T15:02:17.343Z,100793.06
2018-04-26T15:04:43.201Z,100798.54
2018-04-26T15:07:09.029Z,100794.59
2018-04-26T15:09:34.912Z,100784.58
2018-04-26T15:12:00.776Z,100783.13
2018-04-26T15:14:26.658Z,100786.06
2018-04-26T15:16:52.562Z,100779.31
2018-04-26T15:19:18.450Z,100773.16
2018-04-26T15:21:44.447Z,100765.08
2018-04-26T15:24:10.299Z,100774.14
2018-04-26T15:26:36.222Z,100771.90
2018-04-26T15:29:02.099Z,100771.35
2018-04-26T15:31:27.964Z,100766.53
2018-04-26T15:33:53.836Z,100752.28
2018-04-26T15:36:19.717Z,100746.67
2018-04-26T15:38:45.620Z,100744.72
2018-04-26T15:41:11.490Z,100753.61
2018-04-26T15:43:37.371Z,100759.77
2018-04-26T15:46:03.226Z,100759.16
2018-04-26T15:48:29.122Z,100757.23
2018-04-26T15:50:54.992Z,100754.13
2018-04-26T15:53:33.222Z,100776.24
2018-04-26T15:56:12.034Z,100798.10
2018-04-26T16:02:11.534Z,100857.92
2018-04-26T16:04:49.715Z,100825.17
2018-04-26T16:07:48.753Z,100802.87
2018-04-26T16:10:27.142Z,100779.10
2018-04-26T16:13:11.610Z,100771.30
2018-04-26T16:15:56.093Z,100763.00
2018-04-26T16:18:40.764Z,100757.19
2018-04-26T16:21:25.332Z,100758.52
2018-04-26T16:24:03.648Z,100758.34
2018-04-26T16:26:48.075Z,100754.94
2018-04-26T16:29:32.432Z,100749.40
2018-04-26T16:32:17.072Z,100752.04
2018-04-26T16:34:55.723Z,100752.81
2018-04-26T16:37:40.023Z,100753.22
2018-04-26T16:40:06.019Z,100767.11
2018-04-26T16:42:31.909Z,100765.72
2018-04-26T16:44:57.749Z,100767.45
2018-04-26T16:47:23.674Z,100764.46
2018-04-26T16:49:49.623Z,100774.12
2018-04-26T16:52:16.180Z,100779.50
2018-04-26T16:54:42.062Z,100795.32
2018-04-26T16:57:07.950Z,100800.05
2018-04-26T16:59:34.415Z,100798.47
2018-04-26T17:02:00.295Z,100803.09
2018-04-26T17:04:26.270Z,100797.20
2018-04-26T17:06:52.127Z,100798.23
2018-04-26T17:09:18.013Z,100803.30
2018-04-26T17:11:44.096Z,100802.33
2018-04-26T17:14:10.003Z,100806.92
2018-04-26T17:16:35.905Z,100803.68
2018-04-26T17:19:01.839Z,100806.20
2018-04-26T17:21:27.707Z,100811.30
2018-04-26T17:23:53.597Z,100813.89
2018-04-26T17:26:19.513Z,100808.95
2018-04-26T17:28:45.394Z,100808.42
2018-04-26T17:31:11.290Z,100808.78
2018-04-26T17:33:37.207Z,100812.03
2018-04-26T17:36:03.171Z,100813.19
2018-04-26T17:38:29.070Z,100808.78
2018-04-26T17:40:54.929Z,100812.39
2018-04-26T17:43:20.897Z,100810.41
2018-04-26T17:45:46.830Z,100812.12
2018-04-26T17:48:12.725Z,100810.95
2018-04-26T17:50:38.590Z,100813.41
2018-04-26T17:53:04.482Z,100814.72
2018-04-26T17:55:30.382Z,100821.69
2018-04-26T17:57:56.295Z,100811.94
2018-04-26T18:00:22.254Z,100817.92
2018-04-26T18:02:48.201Z,100819.97
2018-04-26T18:05:14.112Z,100817.41
2018-04-26T18:07:54.998Z,100820.07
2018-04-26T18:10:21.820Z,100822.36
2018-04-26T18:12:47.844Z,100830.26
2018-04-26T18:15:13.873Z,100836.88
2018-04-26T18:17:39.902Z,100844.88
2018-04-26T18:20:08.584Z,100842.69
2018-04-26T18:22:31.894Z,100849.84
2018-04-26T18:24:58.446Z,100856.09
2018-04-26T18:27:24.379Z,100860.67
2018-04-26T18:29:50.298Z,100854.49
2018-04-26T18:32:17.191Z,100869.88
2018-04-26T18:34:43.104Z,100872.21
2018-04-26T18:37:09.473Z,100876.17
2018-04-26T18:39:35.439Z,100874.02
2018-04-26T18:42:02.224Z,100878.27
2018-04-26T18:44:28.156Z,100880.08
2018-04-26T18:46:54.189Z,100886.95
2018-04-26T18:49:20.066Z,100902.27
2018-04-26T18:51:46.024Z,100888.29
2018-04-26T18:54:11.990Z,100894.16
2018-04-26T18:56:37.983Z,100893.38
2018-04-26T18:59:03.829Z,100894.66
2018-04-26T19:01:30.513Z,100895.20
2018-04-26T19:03:56.493Z,100892.25
2018-04-26T19:06:23.074Z,100896.38
2018-04-26T19:08:48.953Z,100902.56
2018-04-26T19:11:14.866Z,100903.90
2018-04-26T19:13:40.944Z,100903.00
2018-04-26T19:16:06.957Z,100903.85
2018-04-26T19:18:32.914Z,100914.66
2018-04-26T19:20:58.852Z,100916.16
2018-04-26T19:23:24.764Z,100915.84
2018-04-26T19:25:50.674Z,100916.20
2018-04-26T19:28:17.571Z,100934.92
2018-04-26T19:30:43.433Z,100927.14
2018-04-26T19:33:10.109Z,100921.06
2018-04-26T19:35:36.033Z,100918.66
2018-04-26T19:38:02.031Z,100920.02
2018-04-26T19:40:27.970Z,100924.30
2018-04-26T19:42:53.857Z,100933.62
2018-04-26T19:45:20.609Z,100930.17
2018-04-26T19:47:46.530Z,100933.38
2018-04-26T19:50:14.005Z,100931.72
2018-04-26T19:52:39.888Z,100936.96
2018-04-26T19:55:05.797Z,100937.48
2018-04-26T19:57:31.660Z,100938.45
2018-04-26T19:59:57.525Z,100942.44
2018-04-26T20:02:23.486Z,100945.45
2018-04-26T20:04:49.415Z,100942.88
2018-04-26T20:07:15.311Z,100947.28
2018-04-26T20:09:41.557Z,100950.41
2018-04-26T20:12:07.422Z,100953.00
2018-04-26T20:14:33.313Z,100945.59
2018-04-26T20:16:59.201Z,100954.79
2018-04-26T20:19:25.083Z,100961.90
2018-04-26T20:21:51.708Z,100962.69
2018-04-26T20:24:18.377Z,100950.91
2018-04-26T20:26:44.263Z,100958.84
2018-04-26T20:29:10.178Z,100943.45
2018-04-26T20:31:36.055Z,100949.98
2018-04-26T20:34:01.947Z,100942.99
2018-04-26T20:36:28.011Z,100946.51
2018-04-26T20:38:54.040Z,100946.59
2018-04-26T20:41:19.943Z,100946.11
2018-04-26T20:43:45.852Z,100952.67
2018-04-26T20:46:11.701Z,100958.81
2018-04-26T20:48:40.444Z,100951.06
2018-04-26T20:51:06.327Z,100948.91
2018-04-26T20:53:32.218Z,100949.81
2018-04-26T20:55:58.108Z,100949.37
2018-04-26T20:58:23.954Z,100953.27
2018-04-26T21:00:49.892Z,100953.32
2018-04-26T21:03:15.802Z,100948.09
2018-04-26T21:05:41.712Z,100945.64
2018-04-26T21:08:07.684Z,100942.77
2018-04-26T21:10:33.558Z,100943.91
2018-04-26T21:12:59.460Z,100942.34
2018-04-26T21:15:25.322Z,100946.28
2018-04-26T21:17:51.244Z,100939.19
2018-04-26T21:20:17.086Z,100938.86
2018-04-26T21:22:42.936Z,100940.26
2018-04-26T21:25:08.817Z,100942.13
2018-04-26T21:27:34.668Z,100943.16
2018-04-26T21:30:00.536Z,100937.65
2018-04-26T21:32:26.405Z,100940.78
2018-04-26T21:34:52.257Z,100939.98
2018-04-26T21:37:18.142Z,100938.33
2018-04-26T21:39:44.014Z,100946.20
2018-04-26T21:42:09.887Z,100943.61
2018-04-26T21:44:35.777Z,100938.88
2018-04-26T21:47:01.602Z,100945.36
2018-04-26T21:49:27.407Z,100944.02
2018-04-26T21:51:59.569Z,100950.53
2018-04-26T21:54:31.680Z,100946.99
2018-04-26T21:57:03.628Z,100948.80
2018-04-26T21:59:35.592Z,100944.91
2018-04-26T22:02:07.533Z,100944.55
2018-04-26T22:04:39.402Z,100953.36
2018-04-26T22:07:05.249Z,100953.91
2018-04-26T22:09:31.114Z,100946.56
2018-04-26T22:11:56.955Z,100951.76
2018-04-26T22:14:22.879Z,100947.45
2018-04-26T22:16:48.682Z,100937.98
2018-04-26T22:19:14.538Z,100948.28
2018-04-26T22:21:40.399Z,100949.55
2018-04-26T22:24:06.267Z,100949.13
2018-04-26T22:26:32.119Z,100948.16
2018-04-26T22:28:57.963Z,100947.13
2018-04-26T22:31:23.850Z,100947.05
2018-04-26T22:33:49.693Z,100950.03
2018-04-26T22:36:15.578Z,100943.02
2018-04-26T22:38:41.448Z,100943.56
2018-04-26T22:41:07.304Z,100934.45
2018-04-26T22:43:33.168Z,100946.34
2018-04-26T22:45:59.013Z,100939.34
2018-04-26T22:48:24.880Z,100941.97
2018-04-26T22:50:50.743Z,100942.86
2018-04-26T22:53:16.604Z,100944.20
2018-04-26T22:55:42.440Z,100950.84
2018-04-26T22:58:08.303Z,100952.65
2018-04-26T23:00:34.252Z,100949.53
2018-04-26T23:03:00.123Z,100952.55
2018-04-26T23:05:25.960Z,100957.27
2018-04-26T23:07:51.800Z,100955.02
2018-04-26T23:10:17.664Z,100953.34
2018-04-26T23:12:43.516Z,100955.52
2018-04-26T23:15:09.412Z,100963.36
2018-04-26T23:17:35.237Z,100955.83
2018-04-26T23:20:01.098Z,100962.81
2018-04-26T23:22:26.943Z,100957.70
2018-04-26T23:24:52.806Z,100954.66
2018-04-26T23:27:18.635Z,100950.31
2018-04-26T23:29:44.507Z,100952.91
2018-04-26T23:32:10.359Z,100948.48
2018-04-26T23:34:36.219Z,100949.78
2018-04-26T23:37:02.903Z,100958.10
2018-04-26T23:39:28.733Z,100961.12
2018-04-26T23:41:54.596Z,100956.77
2018-04-26T23:44:20.457Z,100958.07
2018-04-26T23:46:46.311Z,100954.61
2018-04-26T23:49:12.162Z,100953.81
2018-04-26T23:51:37.985Z,100963.84
2018-04-26T23:54:03.832Z,100956.06
2018-04-26T23:56:29.684Z,100964.70
2018-04-26T23:58:55.589Z,100960.48
